createdAt,value
2019-03-18T00:00:32.357Z,36.67
2019-03-18T00:03:02.370Z,37.27
2019-03-18T00:05:33.436Z,37.17
2019-03-18T00:08:03.100Z,37.63
2019-03-18T00:10:33.986Z,37.10
2019-03-18T00:13:04.060Z,37.07
2019-03-18T00:15:33.778Z,37.20
2019-03-18T00:18:03.453Z,37.73
2019-03-18T00:20:33.131Z,36.67
2019-03-18T00:23:02.786Z,37.70
2019-03-18T00:25:32.434Z,37.93
2019-03-18T00:28:02.114Z,36.93
2019-03-18T00:30:32.186Z,37.60
2019-03-18T00:33:03.357Z,37.60
2019-03-18T00:35:33.208Z,36.77
2019-03-18T00:38:02.873Z,37.23
2019-03-18T00:40:32.917Z,37.40
2019-03-18T00:43:02.593Z,36.47
2019-03-18T00:45:32.236Z,36.50
2019-03-18T00:48:01.902Z,37.80
2019-03-18T00:50:31.579Z,36.90
2019-03-18T00:53:01.252Z,37.80
2019-03-18T00:55:30.896Z,37.20
2019-03-18T00:58:00.579Z,37.67
2019-03-18T01:00:30.250Z,37.33
2019-03-18T01:02:59.912Z,37.53
2019-03-18T01:05:29.595Z,37.40
2019-03-18T01:07:59.250Z,37.03
2019-03-18T01:10:29.041Z,37.40
2019-03-18T01:12:58.719Z,37.30
2019-03-18T01:15:28.850Z,36.30
2019-03-18T01:17:58.592Z,36.77
2019-03-18T01:20:28.270Z,37.43
2019-03-18T01:22:57.916Z,37.70
2019-03-18T01:25:27.569Z,36.53
2019-03-18T01:27:57.268Z,36.53
2019-03-18T01:30:26.925Z,36.80
2019-03-18T01:32:56.573Z,37.33
2019-03-18T01:35:26.268Z,36.83
2019-03-18T01:37:55.925Z,36.53
2019-03-18T01:40:25.872Z,36.90
2019-03-18T01:42:56.904Z,37.57
2019-03-18T01:45:26.559Z,37.03
2019-03-18T01:47:56.203Z,37.47
2019-03-18T01:50:25.871Z,36.70
2019-03-18T01:52:55.548Z,37.63
2019-03-18T01:55:25.199Z,36.93
2019-03-18T01:57:54.872Z,36.97
2019-03-18T02:00:24.640Z,37.17
2019-03-18T02:02:54.301Z,37.43
2019-03-18T02:05:23.993Z,36.37
2019-03-18T02:07:53.633Z,36.27
2019-03-18T02:10:23.295Z,36.20
2019-03-18T02:12:52.963Z,37.33
2019-03-18T02:15:22.630Z,37.17
2019-03-18T02:17:52.279Z,36.70
2019-03-18T02:20:21.952Z,36.80
2019-03-18T02:22:51.794Z,37.03
2019-03-18T02:25:21.509Z,36.87
2019-03-18T02:27:51.189Z,36.57
2019-03-18T02:30:21.274Z,36.97
2019-03-18T02:32:50.901Z,36.23
2019-03-18T02:35:20.584Z,36.43
2019-03-18T02:37:50.230Z,36.53
2019-03-18T02:40:19.892Z,37.17
2019-03-18T02:42:49.577Z,37.03
2019-03-18T02:45:19.227Z,37.27
2019-03-18T02:47:48.805Z,36.13
2019-03-18T02:50:18.503Z,36.00
2019-03-18T02:52:48.083Z,36.57
2019-03-18T02:55:17.740Z,36.03
2019-03-18T02:57:47.421Z,36.33
2019-03-18T03:00:17.442Z,35.70
2019-03-18T03:02:47.225Z,36.37
2019-03-18T03:05:16.915Z,36.37
2019-03-18T03:07:48.299Z,36.53
2019-03-18T03:10:17.949Z,36.37
2019-03-18T03:12:47.612Z,36.07
2019-03-18T03:15:17.258Z,36.60
2019-03-18T03:17:46.920Z,36.13
2019-03-18T03:20:16.586Z,35.40
2019-03-18T03:22:46.241Z,36.57
2019-03-18T03:25:15.960Z,35.60
2019-03-18T03:27:45.643Z,36.07
2019-03-18T03:30:18.263Z,35.90
2019-03-18T03:32:47.904Z,36.30
2019-03-18T03:35:17.740Z,35.83
2019-03-18T03:37:47.312Z,35.63
2019-03-18T03:40:16.982Z,36.50
2019-03-18T03:42:46.655Z,36.10
2019-03-18T03:45:16.619Z,36.33
2019-03-18T03:47:46.287Z,35.77
2019-03-18T03:50:16.623Z,35.30
2019-03-18T03:52:46.264Z,36.03
2019-03-18T03:55:16.214Z,35.87
2019-03-18T03:57:46.083Z,36.00
2019-03-18T04:00:16.815Z,35.37
2019-03-18T04:02:46.476Z,36.20
2019-03-18T04:05:16.152Z,35.63
2019-03-18T04:07:45.818Z,36.17
2019-03-18T04:10:16.385Z,35.93
2019-03-18T04:12:46.067Z,36.20
2019-03-18T04:15:18.486Z,35.87
2019-03-18T04:17:48.130Z,36.00
2019-03-18T04:20:18.721Z,36.20
2019-03-18T04:22:49.625Z,36.10
2019-03-18T04:25:19.283Z,35.70
2019-03-18T04:27:48.960Z,36.33
2019-03-18T04:30:18.604Z,35.90
2019-03-18T04:32:48.262Z,36.07
2019-03-18T04:35:17.937Z,36.43
2019-03-18T04:37:47.585Z,36.17
2019-03-18T04:40:17.256Z,36.23
2019-03-18T04:42:46.932Z,36.23
2019-03-18T04:45:16.590Z,36.47
2019-03-18T04:47:46.255Z,36.00
2019-03-18T04:50:16.138Z,36.03
2019-03-18T04:52:45.789Z,36.30
2019-03-18T04:55:15.467Z,35.77
2019-03-18T04:57:45.126Z,35.73
2019-03-18T05:00:15.687Z,35.80
2019-03-18T05:02:47.639Z,35.63
2019-03-18T05:05:17.330Z,35.60
2019-03-18T05:07:47.057Z,35.67
2019-03-18T05:10:16.745Z,35.87
2019-03-18T05:12:46.372Z,35.80
2019-03-18T05:15:16.049Z,35.43
2019-03-18T05:17:45.719Z,36.47
2019-03-18T05:20:15.397Z,37.17
2019-03-18T05:22:45.047Z,36.27
2019-03-18T05:25:14.994Z,35.57
2019-03-18T05:27:44.673Z,35.93
2019-03-18T05:30:15.660Z,35.87
2019-03-18T05:32:45.305Z,36.03
2019-03-18T05:35:14.986Z,35.40
2019-03-18T05:37:44.615Z,36.00
2019-03-18T05:40:14.260Z,36.10
2019-03-18T05:42:43.943Z,36.33
2019-03-18T05:45:13.598Z,35.63
2019-03-18T05:47:43.260Z,36.17
2019-03-18T05:50:13.236Z,36.33
2019-03-18T05:52:42.900Z,37.10
2019-03-18T05:55:12.559Z,37.00
2019-03-18T05:57:42.257Z,36.90
2019-03-18T06:00:14.376Z,36.60
2019-03-18T06:02:46.826Z,37.40
2019-03-18T06:05:15.451Z,36.67
2019-03-18T06:07:45.374Z,36.53
2019-03-18T06:10:15.620Z,36.33
2019-03-18T06:12:45.284Z,37.10
2019-03-18T06:15:14.938Z,36.63
2019-03-18T06:17:52.151Z,36.97
2019-03-18T06:20:16.001Z,36.27
2019-03-18T06:22:45.670Z,37.57
2019-03-18T06:25:15.316Z,37.83
2019-03-18T06:27:45.001Z,37.87
2019-03-18T06:30:16.754Z,37.40
2019-03-18T06:32:46.429Z,38.03
2019-03-18T06:35:16.113Z,38.27
2019-03-18T06:37:45.876Z,38.73
2019-03-18T06:40:16.344Z,38.97
2019-03-18T06:42:46.030Z,39.40
2019-03-18T06:45:15.694Z,37.60
2019-03-18T06:47:45.397Z,38.13
2019-03-18T06:50:15.020Z,38.00
2019-03-18T06:52:44.664Z,38.03
2019-03-18T06:55:14.347Z,38.33
2019-03-18T06:57:44.025Z,38.10
2019-03-18T07:00:16.429Z,37.93
2019-03-18T07:02:46.087Z,38.00
2019-03-18T07:05:15.757Z,37.23
2019-03-18T07:07:45.425Z,37.43
2019-03-18T07:10:15.377Z,37.27
2019-03-18T07:12:45.135Z,37.77
2019-03-18T07:15:14.907Z,36.70
2019-03-18T07:17:44.576Z,36.57
2019-03-18T07:20:15.252Z,37.17
2019-03-18T07:22:44.913Z,36.57
2019-03-18T07:25:14.641Z,36.97
2019-03-18T07:27:44.313Z,37.50
2019-03-18T07:30:15.476Z,36.63
2019-03-18T07:32:45.134Z,37.20
2019-03-18T07:35:16.347Z,36.53
2019-03-18T07:37:47.212Z,36.67
2019-03-18T07:40:18.090Z,37.50
2019-03-18T07:42:47.760Z,37.03
2019-03-18T07:45:17.423Z,37.10
2019-03-18T07:47:47.197Z,37.07
2019-03-18T07:50:17.172Z,36.47
2019-03-18T07:52:48.144Z,37.57
2019-03-18T07:55:17.815Z,37.13
2019-03-18T07:57:47.514Z,36.97
2019-03-18T08:00:17.933Z,36.83
2019-03-18T08:02:47.612Z,37.33
2019-03-18T08:05:17.294Z,36.73
2019-03-18T08:07:46.949Z,38.10
2019-03-18T08:10:16.605Z,36.73
2019-03-18T08:12:46.302Z,37.23
2019-03-18T08:15:15.965Z,36.67
2019-03-18T08:17:45.628Z,37.33
2019-03-18T08:20:15.504Z,37.50
2019-03-18T08:22:45.176Z,38.00
2019-03-18T08:25:14.839Z,37.57
2019-03-18T08:27:44.526Z,38.40
2019-03-18T08:30:19.761Z,37.70
2019-03-18T08:32:49.381Z,38.43
2019-03-18T08:35:19.030Z,38.17
2019-03-18T08:37:48.780Z,37.60
2019-03-18T08:40:18.463Z,37.90
2019-03-18T08:42:48.122Z,39.23
2019-03-18T08:45:17.905Z,38.83
2019-03-18T08:47:47.523Z,38.73
2019-03-18T08:50:17.179Z,38.00
2019-03-18T08:52:46.843Z,38.23
2019-03-18T08:55:16.533Z,37.40
2019-03-18T08:57:46.204Z,38.17
2019-03-18T09:00:17.948Z,37.03
2019-03-18T09:02:47.643Z,37.93
2019-03-18T09:05:17.328Z,37.50
2019-03-18T09:07:46.998Z,37.67
2019-03-18T09:10:17.793Z,37.37
2019-03-18T09:12:47.469Z,38.50
2019-03-18T09:15:18.183Z,37.33
2019-03-18T09:17:47.852Z,38.10
2019-03-18T09:20:21.946Z,38.27
2019-03-18T09:22:51.455Z,39.07
2019-03-18T09:25:21.110Z,38.50
2019-03-18T09:27:50.703Z,38.10
2019-03-18T09:30:21.908Z,37.57
2019-03-18T09:32:51.804Z,38.80
2019-03-18T09:35:21.464Z,38.77
2019-03-18T09:37:51.138Z,37.73
2019-03-18T09:40:20.808Z,38.17
2019-03-18T09:42:50.463Z,38.20
2019-03-18T09:45:20.278Z,37.90
2019-03-18T09:47:49.943Z,38.37
2019-03-18T09:50:19.695Z,38.50
2019-03-18T09:52:49.387Z,39.43
2019-03-18T09:55:19.075Z,38.60
2019-03-18T09:57:48.727Z,38.53
2019-03-18T10:00:22.025Z,39.07
2019-03-18T10:02:51.912Z,38.17
2019-03-18T10:05:21.572Z,38.73
2019-03-18T10:07:51.278Z,38.27
2019-03-18T10:10:20.940Z,38.23
2019-03-18T10:12:50.593Z,38.63
2019-03-18T10:15:21.802Z,38.07
2019-03-18T10:17:51.465Z,38.27
2019-03-18T10:20:21.301Z,38.13
2019-03-18T10:22:51.093Z,38.50
2019-03-18T10:25:20.776Z,37.80
2019-03-18T10:27:51.859Z,38.80
2019-03-18T10:30:21.553Z,39.03
2019-03-18T10:32:51.223Z,39.20
2019-03-18T10:35:20.886Z,39.00
2019-03-18T10:37:50.642Z,39.87
2019-03-18T10:40:20.460Z,39.27
2019-03-18T10:42:50.130Z,39.47
2019-03-18T10:45:19.819Z,39.53
2019-03-18T10:47:49.547Z,38.83
2019-03-18T10:50:20.973Z,38.57
2019-03-18T10:52:50.698Z,39.03
2019-03-18T10:55:20.348Z,38.60
2019-03-18T10:57:50.036Z,38.77
2019-03-18T11:00:20.995Z,39.13
2019-03-18T11:02:50.692Z,39.10
2019-03-18T11:05:20.358Z,39.27
2019-03-18T11:07:51.787Z,39.50
2019-03-18T11:10:21.533Z,39.27
2019-03-18T11:12:51.221Z,39.27
2019-03-18T11:15:22.881Z,39.30
2019-03-18T11:17:52.527Z,39.60
2019-03-18T11:20:22.304Z,39.40
2019-03-18T11:22:52.022Z,40.00
2019-03-18T11:25:21.684Z,39.03
2019-03-18T11:27:51.386Z,39.20
2019-03-18T11:30:21.640Z,39.80
2019-03-18T11:32:52.760Z,40.23
2019-03-18T11:35:22.476Z,39.87
2019-03-18T11:37:52.156Z,39.47
2019-03-18T11:40:22.727Z,40.90
2019-03-18T11:42:52.407Z,40.73
2019-03-18T11:45:22.064Z,41.00
2019-03-18T11:47:51.547Z,39.57
2019-03-18T11:50:21.949Z,39.67
2019-03-18T11:52:51.694Z,40.00
2019-03-18T11:55:27.467Z,39.57
2019-03-18T11:57:57.252Z,39.93
2019-03-18T12:00:27.721Z,41.00
2019-03-18T12:02:57.486Z,40.83
2019-03-18T12:05:30.361Z,39.77
2019-03-18T12:08:00.035Z,44.97
2019-03-18T12:10:29.739Z,41.70
2019-03-18T12:12:59.402Z,40.13
2019-03-18T12:15:29.373Z,38.70
2019-03-18T12:18:00.542Z,39.07
2019-03-18T12:20:32.990Z,38.40
2019-03-18T12:23:01.612Z,38.30
2019-03-18T12:25:33.731Z,38.57
2019-03-18T12:28:05.015Z,38.40
2019-03-18T12:30:34.062Z,38.37
2019-03-18T12:33:04.233Z,38.83
2019-03-18T12:35:33.903Z,39.10
2019-03-18T12:38:03.683Z,38.53
2019-03-18T12:40:33.372Z,37.80
2019-03-18T12:43:03.198Z,38.37
2019-03-18T12:45:32.863Z,38.53
2019-03-18T12:48:02.570Z,39.10
2019-03-18T12:50:49.228Z,38.23
2019-03-18T12:53:03.622Z,39.17
2019-03-18T12:55:33.301Z,38.10
2019-03-18T12:58:03.004Z,38.87
2019-03-18T13:00:34.969Z,38.63
2019-03-18T13:03:05.024Z,38.53
2019-03-18T13:05:34.685Z,38.47
2019-03-18T13:08:04.670Z,38.93
2019-03-18T13:10:34.342Z,38.73
2019-03-18T13:13:04.097Z,39.30
2019-03-18T13:15:33.776Z,38.03
2019-03-18T13:18:03.474Z,38.67
2019-03-18T13:20:33.130Z,38.83
2019-03-18T13:23:02.804Z,38.73
2019-03-18T13:25:32.503Z,38.97
2019-03-18T13:28:02.287Z,40.30
2019-03-18T13:30:31.934Z,39.20
2019-03-18T13:33:01.686Z,39.00
2019-03-18T13:35:31.275Z,38.43
2019-03-18T13:38:00.936Z,38.40
2019-03-18T13:40:30.676Z,38.47
2019-03-18T13:43:00.546Z,38.10
2019-03-18T13:45:30.210Z,38.90
2019-03-18T13:47:59.893Z,38.03
2019-03-18T13:50:29.543Z,37.93
2019-03-18T13:52:59.203Z,38.80
2019-03-18T13:55:28.888Z,38.50
2019-03-18T13:57:58.587Z,38.63
2019-03-18T14:00:30.997Z,37.87
2019-03-18T14:02:59.972Z,37.60
2019-03-18T14:05:29.648Z,38.23
2019-03-18T14:08:01.102Z,38.87
2019-03-18T14:10:30.819Z,38.03
2019-03-18T14:13:00.482Z,38.40
2019-03-18T14:15:30.156Z,38.27
2019-03-18T14:17:59.840Z,38.33
2019-03-18T14:20:32.038Z,38.20
2019-03-18T14:23:01.625Z,38.80
2019-03-18T14:25:31.318Z,38.20
2019-03-18T14:28:01.185Z,38.77
2019-03-18T14:30:30.876Z,38.77
2019-03-18T14:33:00.553Z,38.83
2019-03-18T14:35:30.216Z,38.53
2019-03-18T14:37:59.879Z,38.63
2019-03-18T14:40:29.580Z,38.83
2019-03-18T14:42:59.732Z,37.87
2019-03-18T14:45:29.400Z,38.27
2019-03-18T14:47:59.203Z,37.83
2019-03-18T14:50:28.882Z,37.70
2019-03-18T14:52:58.739Z,37.93
2019-03-18T14:55:28.447Z,37.83
2019-03-18T14:57:59.992Z,38.13
2019-03-18T15:00:30.661Z,38.03
2019-03-18T15:03:00.347Z,37.77
2019-03-18T15:05:30.017Z,38.20
2019-03-18T15:07:59.670Z,38.83
2019-03-18T15:10:32.672Z,38.53
2019-03-18T15:13:02.320Z,38.20
2019-03-18T15:15:31.989Z,38.67
2019-03-18T15:18:03.198Z,38.57
2019-03-18T15:20:34.456Z,37.83
2019-03-18T15:23:04.116Z,38.37
2019-03-18T15:25:37.363Z,37.83
2019-03-18T15:28:07.011Z,37.70
2019-03-18T15:30:36.699Z,38.00
2019-03-18T15:33:06.412Z,37.80
2019-03-18T15:35:36.067Z,37.27
2019-03-18T15:38:05.989Z,38.03
2019-03-18T15:40:35.743Z,37.53
2019-03-18T15:43:08.783Z,37.57
2019-03-18T15:45:38.673Z,37.10
2019-03-18T15:48:08.369Z,37.93
2019-03-18T15:50:38.023Z,37.20
2019-03-18T15:53:07.702Z,37.60
2019-03-18T15:55:37.381Z,37.40
2019-03-18T15:58:07.050Z,37.80
2019-03-18T16:00:36.715Z,37.77
2019-03-18T16:03:06.411Z,37.40
2019-03-18T16:05:36.069Z,37.17
2019-03-18T16:08:05.805Z,36.90
2019-03-18T16:10:35.495Z,37.40
2019-03-18T16:13:05.167Z,37.73
2019-03-18T16:15:34.897Z,37.30
2019-03-18T16:18:04.585Z,38.00
2019-03-18T16:20:34.240Z,37.33
2019-03-18T16:23:03.917Z,37.77
2019-03-18T16:25:33.596Z,37.33
2019-03-18T16:28:03.330Z,37.37
2019-03-18T16:30:33.004Z,37.53
2019-03-18T16:33:02.785Z,37.70
2019-03-18T16:35:32.461Z,37.83
2019-03-18T16:38:02.133Z,37.90
2019-03-18T16:40:31.814Z,37.90
2019-03-18T16:43:01.499Z,37.67
2019-03-18T16:45:31.220Z,37.73
2019-03-18T16:48:01.030Z,38.03
2019-03-18T16:50:32.434Z,38.10
2019-03-18T16:53:02.075Z,37.83
2019-03-18T16:55:31.754Z,37.80
2019-03-18T16:58:01.425Z,38.10
2019-03-18T17:00:31.090Z,38.57
2019-03-18T17:03:00.858Z,39.27
2019-03-18T17:05:30.514Z,38.67
2019-03-18T17:08:00.175Z,39.50
2019-03-18T17:10:29.847Z,39.00
2019-03-18T17:12:59.564Z,39.10
2019-03-18T17:15:29.163Z,39.93
2019-03-18T17:17:58.928Z,41.90
2019-03-18T17:20:28.750Z,40.33
2019-03-18T17:22:58.439Z,40.33
2019-03-18T17:25:33.354Z,39.73
2019-03-18T17:28:03.024Z,39.87
2019-03-18T17:30:32.700Z,39.50
2019-03-18T17:33:02.457Z,38.83
2019-03-18T17:35:32.138Z,39.37
2019-03-18T17:38:01.812Z,39.33
2019-03-18T17:40:31.499Z,38.90
2019-03-18T17:43:01.180Z,39.90
2019-03-18T17:45:30.905Z,39.33
2019-03-18T17:48:00.576Z,39.13
2019-03-18T17:50:31.456Z,38.90
2019-03-18T17:53:03.824Z,39.50
2019-03-18T17:55:32.860Z,39.63
2019-03-18T17:58:02.549Z,39.60
2019-03-18T18:00:39.991Z,39.20
2019-03-18T18:03:09.656Z,39.93
2019-03-18T18:05:39.427Z,39.97
2019-03-18T18:08:09.187Z,39.00
2019-03-18T18:10:38.868Z,39.10
2019-03-18T18:13:08.520Z,39.30
2019-03-18T18:15:38.234Z,39.17
2019-03-18T18:18:07.912Z,40.47
2019-03-18T18:20:38.022Z,38.97
2019-03-18T18:23:14.144Z,39.43
2019-03-18T18:25:39.242Z,39.40
2019-03-18T18:28:08.996Z,39.37
2019-03-18T18:30:38.708Z,39.23
2019-03-18T18:33:08.471Z,39.50
2019-03-18T18:35:38.095Z,39.33
2019-03-18T18:38:07.799Z,39.57
2019-03-18T18:40:37.469Z,39.57
2019-03-18T18:43:07.139Z,39.10
2019-03-18T18:45:36.824Z,39.13
2019-03-18T18:48:06.509Z,39.70
2019-03-18T18:50:36.196Z,39.83
2019-03-18T18:53:05.940Z,40.13
2019-03-18T18:55:35.609Z,41.37
2019-03-18T18:58:05.283Z,40.67
2019-03-18T19:00:34.977Z,40.37
2019-03-18T19:03:04.741Z,40.00
2019-03-18T19:05:34.393Z,39.67
2019-03-18T19:08:04.154Z,39.67
2019-03-18T19:10:33.836Z,39.27
2019-03-18T19:13:03.555Z,39.70
2019-03-18T19:15:37.449Z,39.60
2019-03-18T19:18:37.388Z,40.03
2019-03-18T19:20:57.805Z,40.63
2019-03-18T19:23:37.159Z,39.50
2019-03-18T19:25:58.898Z,39.00
2019-03-18T19:28:28.573Z,39.27
2019-03-18T19:30:58.377Z,39.20
2019-03-18T19:33:28.051Z,39.10
2019-03-18T19:35:57.736Z,39.53
2019-03-18T19:38:27.407Z,39.10
2019-03-18T19:40:57.083Z,39.50
2019-03-18T19:43:26.790Z,39.00
2019-03-18T19:45:56.526Z,40.07
2019-03-18T19:48:26.210Z,39.53
2019-03-18T19:50:56.004Z,39.70
2019-03-18T19:53:27.143Z,39.60
2019-03-18T19:55:56.807Z,39.93
2019-03-18T19:58:26.502Z,39.80
2019-03-18T20:00:58.609Z,39.63
2019-03-18T20:03:28.289Z,39.00
2019-03-18T20:05:57.975Z,39.70
2019-03-18T20:08:27.579Z,39.43
2019-03-18T20:10:57.244Z,39.40
2019-03-18T20:13:26.985Z,39.17
2019-03-18T20:15:56.649Z,39.77
2019-03-18T20:18:26.387Z,39.57
2019-03-18T20:20:57.047Z,40.07
2019-03-18T20:23:29.384Z,38.97
2019-03-18T20:25:59.121Z,39.13
2019-03-18T20:28:28.848Z,39.37
2019-03-18T20:30:58.586Z,39.63
2019-03-18T20:33:28.263Z,39.90
2019-03-18T20:35:57.949Z,38.07
2019-03-18T20:38:27.679Z,39.27
2019-03-18T20:40:57.358Z,38.97
2019-03-18T20:43:27.049Z,38.60
2019-03-18T20:45:56.729Z,39.43
2019-03-18T20:48:26.415Z,39.90
2019-03-18T20:50:56.765Z,39.47
2019-03-18T20:53:26.761Z,39.63
2019-03-18T20:55:56.513Z,39.60
2019-03-18T20:58:26.209Z,39.40
2019-03-18T21:00:55.880Z,39.53
2019-03-18T21:03:25.557Z,39.77
2019-03-18T21:05:55.273Z,39.37
2019-03-18T21:08:25.182Z,39.17
2019-03-18T21:10:54.894Z,39.30
2019-03-18T21:13:24.599Z,38.83
2019-03-18T21:15:54.254Z,39.03
2019-03-18T21:18:24.122Z,39.33
2019-03-18T21:20:53.809Z,40.60
2019-03-18T21:23:23.651Z,40.10
2019-03-18T21:25:53.351Z,40.10
2019-03-18T21:28:23.034Z,38.97
2019-03-18T21:30:52.696Z,39.30
2019-03-18T21:33:22.353Z,40.23
2019-03-18T21:35:54.776Z,40.20
2019-03-18T21:38:23.429Z,39.97
2019-03-18T21:40:53.101Z,40.77
2019-03-18T21:43:22.795Z,40.50
2019-03-18T21:45:52.537Z,40.43
2019-03-18T21:48:24.822Z,39.57
2019-03-18T21:50:54.508Z,39.37
2019-03-18T21:53:24.085Z,39.63
2019-03-18T21:55:53.772Z,39.80
2019-03-18T21:58:23.474Z,39.27
2019-03-18T22:00:53.940Z,39.80
2019-03-18T22:03:23.553Z,39.60
2019-03-18T22:05:53.254Z,40.30
2019-03-18T22:08:22.916Z,39.30
2019-03-18T22:10:52.590Z,40.80
2019-03-18T22:13:23.725Z,39.83
2019-03-18T22:15:53.384Z,39.93
2019-03-18T22:18:23.085Z,39.87
2019-03-18T22:20:52.777Z,40.30
2019-03-18T22:23:22.439Z,39.83
2019-03-18T22:25:52.109Z,40.43
2019-03-18T22:28:21.815Z,40.60
2019-03-18T22:30:55.167Z,40.53
2019-03-18T22:33:27.330Z,40.17
2019-03-18T22:35:56.999Z,39.77
2019-03-18T22:38:26.678Z,39.97
2019-03-18T22:40:56.415Z,40.00
2019-03-18T22:43:26.096Z,39.97
2019-03-18T22:45:55.760Z,39.43
2019-03-18T22:48:25.497Z,38.93
2019-03-18T22:50:55.210Z,38.90
2019-03-18T22:53:24.887Z,39.27
2019-03-18T22:55:54.573Z,38.47
2019-03-18T22:58:24.307Z,39.20
2019-03-18T23:00:56.389Z,39.07
2019-03-18T23:03:26.157Z,39.23
2019-03-18T23:05:55.855Z,39.13
2019-03-18T23:08:25.517Z,39.40
2019-03-18T23:10:55.178Z,38.87
2019-03-18T23:13:24.852Z,38.53
2019-03-18T23:15:54.515Z,38.30
2019-03-18T23:18:24.189Z,38.33
2019-03-18T23:20:55.349Z,38.27
2019-03-18T23:23:25.065Z,38.63
2019-03-18T23:25:54.740Z,38.87
2019-03-18T23:28:24.435Z,38.27
2019-03-18T23:30:54.108Z,38.50
2019-03-18T23:33:23.777Z,38.90
2019-03-18T23:35:56.414Z,38.60
2019-03-18T23:38:26.075Z,38.80
2019-03-18T23:40:56.063Z,39.20
2019-03-18T23:43:25.762Z,38.60
2019-03-18T23:45:55.448Z,38.43
2019-03-18T23:48:25.106Z,38.63
2019-03-18T23:50:54.782Z,38.30
2019-03-18T23:53:24.711Z,38.17
2019-03-18T23:55:54.458Z,38.33
2019-03-18T23:58:24.375Z,38.67
